Time;durP1;ratioP1;P1;durP2;ratioP2;P2;SDS_P1;SDS_P2;PMS_P1;PMS_P2;Temp;Humidity;BMP_temperature;BMP_pressure;BME280_temperature;BME280_humidity;BME280_pressure;Samples;Min_cycle;Max_cycle;Signal;HPM_P1;HPM_P2
2022/03/01 00:00:26;;;;;;;23.73;13.05;;;;;;;-145.45;100.00;62759.84;5280918;28;20029;-80
2022/03/01 00:02:58;;;;;;;22.65;13.80;;;;;;;-145.45;100.00;62759.84;5280826;28;20033;-80
2022/03/01 00:05:29;;;;;;;19.55;12.30;;;;;;;-145.45;100.00;62759.84;5281747;28;20025;-80
2022/03/01 00:08:00;;;;;;;23.60;12.85;;;;;;;-145.45;100.00;62759.84;5277883;28;20083;-80
2022/03/01 00:10:31;;;;;;;20.55;12.75;;;;;;;-145.45;100.00;62759.84;5279130;28;20028;-80
2022/03/01 00:13:03;;;;;;;19.63;12.90;;;;;;;-145.45;100.00;62759.84;5280333;28;20465;-79
2022/03/01 00:15:34;;;;;;;18.75;12.15;;;;;;;-145.45;100.00;62759.84;5281712;28;20021;-80
2022/03/01 00:18:06;;;;;;;19.63;12.35;;;;;;;-145.45;100.00;62759.84;5281709;28;20418;-80
2022/03/01 00:20:37;;;;;;;21.00;13.43;;;;;;;-145.45;100.00;62759.84;5280675;28;20389;-80
2022/03/01 00:23:08;;;;;;;21.92;13.48;;;;;;;-145.45;100.00;62759.84;5266394;28;20032;-80
2022/03/01 00:25:39;;;;;;;21.90;13.35;;;;;;;-145.45;100.00;62759.84;5281874;28;20102;-80
2022/03/01 00:28:11;;;;;;;23.00;13.80;;;;;;;-145.45;100.00;62759.84;5282781;28;20414;-80
2022/03/01 00:30:42;;;;;;;19.17;13.07;;;;;;;-145.45;100.00;62759.84;5286072;28;20052;-80
2022/03/01 00:33:13;;;;;;;22.98;12.25;;;;;;;-145.45;100.00;62759.84;5286117;28;20025;-80
2022/03/01 00:35:45;;;;;;;22.63;14.10;;;;;;;-145.45;100.00;62759.84;5265846;28;20052;-79
2022/03/01 00:38:16;;;;;;;18.73;12.90;;;;;;;-145.45;100.00;62759.84;5283354;28;20060;-80
2022/03/01 00:40:47;;;;;;;20.38;12.88;;;;;;;-145.45;100.00;62759.84;5283275;28;20075;-80
2022/03/01 00:43:20;;;;;;;22.83;13.75;;;;;;;-145.45;100.00;62759.84;5264422;28;20037;-80
2022/03/01 00:45:53;;;;;;;23.08;13.40;;;;;;;-145.45;100.00;62759.84;5282972;28;20473;-80
2022/03/01 00:48:24;;;;;;;17.95;12.40;;;;;;;-145.45;100.00;62759.84;5282150;28;20033;-80
2022/03/01 00:50:56;;;;;;;23.17;14.07;;;;;;;-145.45;100.00;62759.84;5280473;28;20056;-80
2022/03/01 00:53:27;;;;;;;23.35;13.70;;;;;;;-145.45;100.00;62759.84;5281370;28;20037;-80
2022/03/01 00:55:58;;;;;;;20.77;12.68;;;;;;;-145.45;100.00;62759.84;5281155;28;20043;-80
2022/03/01 00:58:31;;;;;;;22.23;12.90;;;;;;;-145.45;100.00;62759.84;5281884;28;20025;-80
2022/03/01 01:01:03;;;;;;;18.50;12.90;;;;;;;-145.45;100.00;62759.84;5282923;28;20020;-80
2022/03/01 01:03:34;;;;;;;18.95;13.27;;;;;;;-145.45;100.00;62759.84;5269064;28;20389;-79
2022/03/01 01:06:05;;;;;;;21.85;13.98;;;;;;;-145.45;100.00;62759.84;5285809;28;20020;-80
2022/03/01 01:08:37;;;;;;;18.42;12.20;;;;;;;-145.45;100.00;62759.84;5286727;28;20087;-79
2022/03/01 01:11:08;;;;;;;21.33;12.95;;;;;;;-145.45;100.00;62759.84;5280795;28;20029;-79
2022/03/01 01:13:40;;;;;;;21.63;13.95;;;;;;;-145.45;100.00;62759.84;5279995;28;20032;-79
2022/03/01 01:16:11;;;;;;;20.23;12.60;;;;;;;-145.45;100.00;62759.84;5279614;28;20040;-80
2022/03/01 01:18:43;;;;;;;19.90;12.60;;;;;;;-145.45;100.00;62759.84;5258162;28;20112;-79
2022/03/01 01:21:14;;;;;;;19.45;12.02;;;;;;;-145.45;100.00;62759.84;5260803;28;20080;-79
2022/03/01 01:23:45;;;;;;;20.25;12.68;;;;;;;-145.45;100.00;62759.84;5261276;28;20444;-79
2022/03/01 01:26:17;;;;;;;19.58;13.23;;;;;;;-145.45;100.00;62759.84;5279042;28;20458;-80
2022/03/01 01:28:48;;;;;;;21.90;12.85;;;;;;;-145.45;100.00;62759.84;5279515;28;20033;-79
2022/03/01 01:31:19;;;;;;;18.73;12.10;;;;;;;-145.45;100.00;62759.84;5280062;28;20422;-79
2022/03/01 01:33:50;;;;;;;20.05;13.02;;;;;;;-145.45;100.00;62759.84;5279575;28;20048;-79
2022/03/01 01:36:25;;;;;;;19.48;12.52;;;;;;;-145.45;100.00;62759.84;5279382;28;20028;-79
2022/03/01 01:38:56;;;;;;;20.08;13.18;;;;;;;-145.45;100.00;62759.84;5260650;28;20468;-79
2022/03/01 01:41:27;;;;;;;17.25;11.95;;;;;;;-145.45;100.00;62759.84;5278985;28;20033;-79
2022/03/01 01:44:04;;;;;;;19.05;11.57;;;;;;;-145.45;100.00;62759.84;5280109;28;20223;-79
2022/03/01 01:46:36;;;;;;;20.50;11.60;;;;;;;-145.45;100.00;62759.84;5278504;28;20048;-79
2022/03/01 01:49:07;;;;;;;19.60;12.65;;;;;;;-145.45;100.00;62759.84;5278988;28;20069;-79
2022/03/01 01:51:38;;;;;;;18.70;11.68;;;;;;;-145.45;100.00;62759.84;5279294;28;20021;-79
2022/03/01 01:54:09;;;;;;;19.23;12.15;;;;;;;-145.45;100.00;62759.84;5261616;28;20029;-79
2022/03/01 01:56:41;;;;;;;20.40;12.20;;;;;;;-145.45;100.00;62759.84;5279259;28;20025;-79
2022/03/01 01:59:12;;;;;;;18.92;12.25;;;;;;;-145.45;100.00;62759.84;5280144;28;20033;-79
2022/03/01 02:01:44;;;;;;;19.13;11.93;;;;;;;-145.45;100.00;62759.84;5279159;28;20116;-79
2022/03/01 02:04:15;;;;;;;17.63;12.35;;;;;;;-145.45;100.00;62759.84;5262158;28;20025;-79
2022/03/01 02:06:51;;;;;;;18.73;11.65;;;;;;;-145.45;100.00;62759.84;5282726;28;20037;-79
2022/03/01 02:09:22;;;;;;;18.67;12.47;;;;;;;-145.45;100.00;62759.84;5283068;28;20075;-79
2022/03/01 02:11:53;;;;;;;18.58;12.90;;;;;;;-145.45;100.00;62759.84;5283031;28;20276;-79
2022/03/01 02:14:25;;;;;;;19.90;11.35;;;;;;;-145.45;100.00;62759.84;5283859;28;20090;-79
2022/03/01 02:17:00;;;;;;;17.38;11.80;;;;;;;-145.45;100.00;62759.84;5283256;28;20444;-79
2022/03/01 02:19:33;;;;;;;22.23;12.90;;;;;;;-145.45;100.00;62759.84;5263727;28;20098;-79
2022/03/01 02:22:06;;;;;;;18.00;11.77;;;;;;;-145.45;100.00;62759.84;5283493;28;20040;-79
2022/03/01 02:24:38;;;;;;;19.42;12.50;;;;;;;-145.45;100.00;62759.84;5279109;28;20564;-79
2022/03/01 02:27:09;;;;;;;19.83;11.90;;;;;;;-145.45;100.00;62759.84;5281570;28;20032;-79
2022/03/01 02:29:41;;;;;;;18.40;12.43;;;;;;;-145.45;100.00;62759.84;5282023;28;20029;-79
2022/03/01 02:32:12;;;;;;;21.50;12.70;;;;;;;-145.45;100.00;62759.84;5283105;28;20051;-79
2022/03/01 02:34:43;;;;;;;18.27;11.52;;;;;;;-145.45;100.00;62759.84;5282216;28;20029;-79
2022/03/01 02:37:15;;;;;;;22.35;13.02;;;;;;;-145.45;100.00;62759.84;5282175;28;20160;-79
2022/03/01 02:39:46;;;;;;;18.60;11.73;;;;;;;-145.45;100.00;62759.84;5282635;28;20397;-79
2022/03/01 02:42:18;;;;;;;21.63;12.65;;;;;;;-145.45;100.00;62759.84;5282497;28;20389;-79
2022/03/01 02:44:49;;;;;;;19.55;11.70;;;;;;;-145.45;100.00;62759.84;5282107;28;20167;-79
2022/03/01 02:47:20;;;;;;;20.42;11.13;;;;;;;-145.45;100.00;62759.84;5280500;28;20037;-79
2022/03/01 02:49:52;;;;;;;18.92;11.80;;;;;;;-145.45;100.00;62759.84;5282153;28;20048;-79
2022/03/01 02:52:23;;;;;;;18.35;11.77;;;;;;;-145.45;100.00;62759.84;5281786;28;20018;-79
2022/03/01 02:54:54;;;;;;;18.25;10.75;;;;;;;-145.45;100.00;62759.84;5282149;28;20116;-79
2022/03/01 02:57:27;;;;;;;21.10;11.20;;;;;;;-145.45;100.00;62759.84;5282280;28;20017;-79
2022/03/01 02:59:58;;;;;;;19.33;11.48;;;;;;;-145.45;100.00;62759.84;5281827;28;20037;-79
2022/03/01 03:02:29;;;;;;;17.90;11.23;;;;;;;-145.45;100.00;62759.84;5282509;28;20024;-79
2022/03/01 03:05:01;;;;;;;15.88;11.77;;;;;;;-145.45;100.00;62759.84;5282138;28;20025;-79
2022/03/01 03:07:33;;;;;;;18.88;11.93;;;;;;;-145.45;100.00;62759.84;5281456;28;20028;-79
2022/03/01 03:10:05;;;;;;;14.57;10.15;;;;;;;-145.45;100.00;62759.84;5281243;28;20021;-80
2022/03/01 03:12:36;;;;;;;16.98;10.55;;;;;;;-145.45;100.00;62759.84;5280057;28;20477;-80
2022/03/01 03:15:08;;;;;;;16.92;10.98;;;;;;;-145.45;100.00;62759.84;5282155;28;20032;-79
2022/03/01 03:17:41;;;;;;;15.60;10.95;;;;;;;-145.45;100.00;62759.84;5280625;28;20021;-79
2022/03/01 03:20:12;;;;;;;20.63;10.93;;;;;;;-145.45;100.00;62759.84;5281408;28;20033;-79
2022/03/01 03:22:43;;;;;;;17.05;10.63;;;;;;;-145.45;100.00;62759.84;5262919;28;20040;-79
2022/03/01 03:25:15;;;;;;;14.63;10.25;;;;;;;-145.45;100.00;62759.84;5281135;28;20032;-79
2022/03/01 03:27:46;;;;;;;18.30;11.02;;;;;;;-145.45;100.00;62759.84;5280883;28;20021;-79
2022/03/01 03:30:17;;;;;;;18.05;10.82;;;;;;;-145.45;100.00;62759.84;5275548;28;20053;-79
2022/03/01 03:32:49;;;;;;;17.65;11.35;;;;;;;-145.45;100.00;62759.84;5284891;28;20017;-79
2022/03/01 03:35:20;;;;;;;16.67;10.90;;;;;;;-145.45;100.00;62759.84;5290860;28;20174;-79
2022/03/01 03:37:52;;;;;;;17.85;11.13;;;;;;;-145.45;100.00;62759.84;5282752;28;20032;-79
2022/03/01 03:40:23;;;;;;;18.15;11.35;;;;;;;-145.45;100.00;62759.84;5280951;28;20041;-79
2022/03/01 03:42:55;;;;;;;16.33;10.57;;;;;;;-145.45;100.00;62759.84;5263027;28;20477;-79
2022/03/01 03:45:27;;;;;;;16.30;10.40;;;;;;;-145.45;100.00;62759.84;5280844;28;20451;-79
2022/03/01 03:47:58;;;;;;;19.42;11.32;;;;;;;-145.45;100.00;62759.84;5258290;28;20029;-79
2022/03/01 03:50:30;;;;;;;16.10;10.95;;;;;;;-145.45;100.00;62759.84;5280483;28;20064;-79
2022/03/01 03:53:01;;;;;;;19.40;11.10;;;;;;;-145.45;100.00;62759.84;5281635;28;20036;-79
2022/03/01 03:55:33;;;;;;;16.88;10.95;;;;;;;-145.45;100.00;62759.84;5280953;28;20548;-79
2022/03/01 03:58:04;;;;;;;19.48;11.82;;;;;;;-145.45;100.00;62759.84;5280116;28;20121;-79
2022/03/01 04:00:35;;;;;;;15.20;10.93;;;;;;;-145.45;100.00;62759.84;5280595;28;20820;-79
2022/03/01 04:03:07;;;;;;;15.88;11.32;;;;;;;-145.45;100.00;62759.84;5281529;28;20048;-80
2022/03/01 04:05:38;;;;;;;17.52;11.00;;;;;;;-145.45;100.00;62759.84;5280870;28;20077;-79
2022/03/01 04:08:13;;;;;;;19.23;11.65;;;;;;;-145.45;100.00;62759.84;5283315;28;20425;-79
2022/03/01 04:10:44;;;;;;;15.77;11.43;;;;;;;-145.45;100.00;62759.84;5261169;28;20481;-79
2022/03/01 04:13:16;;;;;;;18.90;11.75;;;;;;;-145.45;100.00;62759.84;5281256;28;20028;-80
2022/03/01 04:15:47;;;;;;;18.63;12.05;;;;;;;-145.45;100.00;62759.84;5262118;28;20502;-79
2022/03/01 04:18:19;;;;;;;18.83;12.02;;;;;;;-145.45;100.00;62759.84;5280103;28;20540;-79
2022/03/01 04:20:50;;;;;;;17.40;11.80;;;;;;;-145.45;100.00;62759.84;5280197;28;20025;-79
2022/03/01 04:23:21;;;;;;;17.55;12.38;;;;;;;-145.45;100.00;62759.84;5278769;28;20574;-79
2022/03/01 04:25:53;;;;;;;17.17;11.27;;;;;;;-145.45;100.00;62759.84;5279632;28;20032;-79
2022/03/01 04:28:24;;;;;;;18.38;12.18;;;;;;;-145.45;100.00;62759.84;5280161;28;20565;-79
2022/03/01 04:30:56;;;;;;;15.23;11.45;;;;;;;-145.45;100.00;62759.84;5279876;28;20029;-79
2022/03/01 04:33:27;;;;;;;19.95;11.80;;;;;;;-145.45;100.00;62759.84;5279129;28;20223;-79
2022/03/01 04:36:02;;;;;;;19.20;11.88;;;;;;;-145.45;100.00;62759.84;5280842;28;20029;-80
2022/03/01 04:38:33;;;;;;;16.90;11.68;;;;;;;-145.45;100.00;62759.84;5281038;28;20041;-79
2022/03/01 04:41:04;;;;;;;19.35;11.35;;;;;;;-145.45;100.00;62759.84;5280969;28;20098;-79
2022/03/01 04:43:36;;;;;;;19.65;11.65;;;;;;;-145.45;100.00;62759.84;5280770;28;20029;-79
2022/03/01 04:46:08;;;;;;;16.33;10.88;;;;;;;-145.45;100.00;62759.84;5280926;28;20489;-80
2022/03/01 04:48:39;;;;;;;16.23;11.70;;;;;;;-145.45;100.00;62759.84;5281394;28;20049;-79
2022/03/01 04:51:11;;;;;;;20.25;12.25;;;;;;;-145.45;100.00;62759.84;5281192;28;20032;-79
2022/03/01 04:53:42;;;;;;;17.02;11.15;;;;;;;-145.45;100.00;62759.84;5280136;28;20033;-79
2022/03/01 04:56:13;;;;;;;19.25;11.88;;;;;;;-145.45;100.00;62759.84;5279465;28;41781;-79
2022/03/01 04:58:45;;;;;;;19.15;11.43;;;;;;;-145.45;100.00;62759.84;5262814;28;20890;-79
2022/03/01 05:01:16;;;;;;;17.42;10.52;;;;;;;-145.45;100.00;62759.84;5280980;28;20021;-79
2022/03/01 05:03:47;;;;;;;17.17;11.13;;;;;;;-145.45;100.00;62759.84;5280697;28;20086;-79
2022/03/01 05:06:20;;;;;;;18.27;11.07;;;;;;;-145.45;100.00;62759.84;5277534;28;20025;-79
2022/03/01 05:08:51;;;;;;;17.02;11.18;;;;;;;-145.45;100.00;62759.84;5281025;28;20021;-79
2022/03/01 05:11:22;;;;;;;15.32;10.68;;;;;;;-145.45;100.00;62759.84;5280894;28;20362;-79
2022/03/01 05:13:53;;;;;;;17.30;11.43;;;;;;;-145.45;100.00;62759.84;5280713;28;20436;-79
2022/03/01 05:16:25;;;;;;;18.05;11.05;;;;;;;-145.45;100.00;62759.84;5260721;28;20364;-79
2022/03/01 05:18:56;;;;;;;17.52;11.32;;;;;;;-145.45;100.00;62759.84;5281727;28;20047;-79
2022/03/01 05:21:29;;;;;;;17.80;11.20;;;;;;;-145.45;100.00;62759.84;5280588;28;20119;-79
2022/03/01 05:24:01;;;;;;;17.40;11.02;;;;;;;-145.45;100.00;62759.84;5278486;28;20027;-79
2022/03/01 05:26:33;;;;;;;18.30;11.70;;;;;;;-145.45;100.00;62759.84;5276352;28;20099;-79
2022/03/01 05:29:04;;;;;;;17.92;11.82;;;;;;;-145.45;100.00;62759.84;5278096;28;20017;-79
2022/03/01 05:31:38;;;;;;;22.25;12.27;;;;;;;-145.45;100.00;62759.84;5260051;28;20102;-79
2022/03/01 05:34:09;;;;;;;15.73;11.60;;;;;;;-145.45;100.00;62759.84;5281116;28;20037;-79
2022/03/01 05:36:40;;;;;;;19.60;12.25;;;;;;;-145.45;100.00;62759.84;5262702;28;20033;-79
2022/03/01 05:39:12;;;;;;;19.35;11.70;;;;;;;-145.45;100.00;62759.84;5279916;28;20033;-78
2022/03/01 05:41:43;;;;;;;24.10;12.77;;;;;;;-145.45;100.00;62759.84;5283204;28;20029;-79
2022/03/01 05:44:14;;;;;;;19.42;11.82;;;;;;;-145.45;100.00;62759.84;5284554;28;20040;-79
2022/03/01 05:46:46;;;;;;;17.35;11.93;;;;;;;-145.45;100.00;62759.84;5283455;28;20036;-79
2022/03/01 05:49:18;;;;;;;19.80;11.85;;;;;;;-145.45;100.00;62759.84;5283593;28;21938;-79
2022/03/01 05:51:49;;;;;;;18.45;12.07;;;;;;;-145.45;100.00;62759.84;5282261;28;20457;-79
2022/03/01 05:54:20;;;;;;;18.20;11.93;;;;;;;-145.45;100.00;62759.84;5284354;28;20088;-79
2022/03/01 05:56:51;;;;;;;16.73;12.32;;;;;;;-145.45;100.00;62759.84;5281615;28;20979;-79
2022/03/01 05:59:23;;;;;;;20.17;12.13;;;;;;;-145.45;100.00;62759.84;5264495;28;20033;-80
2022/03/01 06:01:54;;;;;;;16.15;11.98;;;;;;;-145.45;100.00;62759.84;5282190;28;21100;-79
2022/03/01 06:04:25;;;;;;;18.92;11.60;;;;;;;-145.45;100.00;62759.84;5284946;28;20382;-79
2022/03/01 06:06:57;;;;;;;18.55;11.75;;;;;;;-145.45;100.00;62759.84;5279938;28;20402;-79
2022/03/01 06:09:28;;;;;;;18.73;12.40;;;;;;;-145.45;100.00;62759.84;5282667;28;20025;-79
2022/03/01 06:11:59;;;;;;;19.05;11.73;;;;;;;-145.45;100.00;62759.84;5284035;28;20091;-80
2022/03/01 06:14:31;;;;;;;17.23;11.05;;;;;;;-145.45;100.00;62759.84;5283888;28;20036;-80
2022/03/01 06:17:03;;;;;;;20.40;11.65;;;;;;;-145.45;100.00;62759.84;5282628;28;20497;-80
2022/03/01 06:19:34;;;;;;;19.52;11.82;;;;;;;-145.45;100.00;62759.84;5279670;28;20075;-80
2022/03/01 06:22:06;;;;;;;19.83;11.65;;;;;;;-145.45;100.00;62759.84;5266298;28;20481;-80
2022/03/01 06:24:42;;;;;;;17.45;11.45;;;;;;;-145.45;100.00;62759.84;5266358;28;20091;-80
2022/03/01 06:27:13;;;;;;;18.33;12.27;;;;;;;-145.45;100.00;62759.84;5266807;28;20469;-81
2022/03/01 06:29:45;;;;;;;21.80;12.32;;;;;;;-145.45;100.00;62759.84;5266141;28;20056;-80
2022/03/01 06:32:16;;;;;;;18.27;12.40;;;;;;;-145.45;100.00;62759.84;5285530;28;20025;-80
2022/03/01 06:34:49;;;;;;;21.70;13.05;;;;;;;-145.45;100.00;62759.84;5281777;28;20128;-80
2022/03/01 06:37:20;;;;;;;19.83;12.02;;;;;;;-145.45;100.00;62759.84;5289595;28;20054;-80
2022/03/01 06:39:53;;;;;;;19.42;11.82;;;;;;;-145.45;100.00;62759.84;5291142;28;20037;-80
2022/03/01 06:42:24;;;;;;;19.90;12.45;;;;;;;-145.45;100.00;62759.84;5294814;28;20059;-79
2022/03/01 06:44:56;;;;;;;17.52;12.25;;;;;;;-145.45;100.00;62759.84;5301360;28;20064;-80
2022/03/01 06:47:27;;;;;;;19.90;13.32;;;;;;;-145.45;100.00;62759.84;5303891;28;20021;-80
2022/03/01 06:50:00;;;;;;;22.00;13.48;;;;;;;-145.45;100.00;62759.84;5284047;28;20049;-80
2022/03/01 06:52:34;;;;;;;20.67;13.32;;;;;;;-145.45;100.00;62759.84;5265074;28;20501;-80
2022/03/01 06:55:07;;;;;;;26.20;14.48;;;;;;;-145.45;100.00;62759.84;5282904;28;20083;-79
2022/03/01 06:57:40;;;;;;;18.20;12.50;;;;;;;-145.45;100.00;62759.84;5265142;28;20029;-80
2022/03/01 07:00:12;;;;;;;18.80;13.07;;;;;;;-145.45;100.00;62759.84;5264364;28;20033;-80
2022/03/01 07:02:43;;;;;;;20.85;13.98;;;;;;;-145.45;100.00;62759.84;5282264;28;20472;-80
2022/03/01 07:05:16;;;;;;;23.02;14.13;;;;;;;-145.45;100.00;62759.84;5283661;28;20033;-80
2022/03/01 07:07:47;;;;;;;22.90;13.98;;;;;;;-145.45;100.00;62759.84;5287115;28;20025;-80
2022/03/01 07:10:18;;;;;;;31.02;14.43;;;;;;;-145.45;100.00;62759.84;5297075;28;20056;-79
2022/03/01 07:12:50;;;;;;;26.02;14.13;;;;;;;-145.45;100.00;62759.84;5298838;28;20024;-79
2022/03/01 07:15:22;;;;;;;27.30;15.48;;;;;;;-145.45;100.00;62759.84;5298621;28;20039;-79
2022/03/01 07:17:53;;;;;;;24.13;13.88;;;;;;;-145.45;100.00;62759.84;5291105;28;20108;-79
2022/03/01 07:20:24;;;;;;;22.30;13.05;;;;;;;-145.45;100.00;62759.84;5288463;28;20065;-80
2022/03/01 07:22:56;;;;;;;25.70;14.25;;;;;;;-145.45;100.00;62759.84;5289260;28;20032;-79
2022/03/01 07:25:27;;;;;;;20.27;13.80;;;;;;;-145.45;100.00;62759.84;5288124;28;20093;-79
2022/03/01 07:27:58;;;;;;;23.75;13.63;;;;;;;-145.45;100.00;62759.84;5269236;28;20025;-79
2022/03/01 07:30:30;;;;;;;21.48;14.27;;;;;;;-145.45;100.00;62759.84;5269245;28;20025;-79
2022/03/01 07:33:01;;;;;;;17.40;13.20;;;;;;;-145.45;100.00;62759.84;5284712;28;20570;-80
2022/03/01 07:35:33;;;;;;;22.65;13.80;;;;;;;-145.45;100.00;62759.84;5283391;28;33307;-80
2022/03/01 07:38:04;;;;;;;25.75;14.05;;;;;;;-145.45;100.00;62759.84;5284466;28;20021;-80
2022/03/01 07:40:35;;;;;;;20.23;13.30;;;;;;;-145.45;100.00;62759.84;5265411;28;20025;-80
2022/03/01 07:43:07;;;;;;;21.10;13.90;;;;;;;-145.45;100.00;62759.84;5284077;28;20021;-80
2022/03/01 07:45:39;;;;;;;21.50;14.43;;;;;;;-145.45;100.00;62759.84;5283714;28;20021;-80
2022/03/01 07:48:10;;;;;;;22.38;13.95;;;;;;;-145.45;100.00;62759.84;5283913;28;20033;-80
2022/03/01 07:50:42;;;;;;;23.85;14.85;;;;;;;-145.45;100.00;62759.84;5283288;28;20560;-80
2022/03/01 07:53:13;;;;;;;20.48;13.88;;;;;;;-145.45;100.00;62759.84;5284131;28;20017;-80
2022/03/01 07:55:44;;;;;;;21.48;13.45;;;;;;;-145.45;100.00;62759.84;5282771;28;20025;-80
2022/03/01 07:58:16;;;;;;;20.60;13.90;;;;;;;-145.45;100.00;62759.84;5284192;28;20025;-80
2022/03/01 08:00:50;;;;;;;26.50;14.77;;;;;;;-145.45;100.00;62759.84;5283665;28;20024;-80
2022/03/01 08:03:21;;;;;;;22.23;13.82;;;;;;;-145.45;100.00;62759.84;5282200;28;41887;-80
2022/03/01 08:05:53;;;;;;;21.08;13.68;;;;;;;-145.45;100.00;62759.84;5282933;28;20033;-80
2022/03/01 08:08:24;;;;;;;24.08;13.70;;;;;;;-145.45;100.00;62759.84;5283910;28;20076;-81
2022/03/01 08:10:55;;;;;;;24.05;13.60;;;;;;;-145.45;100.00;62759.84;5283684;28;20031;-81
2022/03/01 08:13:27;;;;;;;21.10;13.30;;;;;;;-145.45;100.00;62759.84;5284255;28;20048;-81
2022/03/01 08:15:59;;;;;;;20.77;13.43;;;;;;;-145.45;100.00;62759.84;5278677;28;20024;-79
2022/03/01 08:18:30;;;;;;;23.95;13.50;;;;;;;-145.45;100.00;62759.84;5260991;28;20087;-78
2022/03/01 08:21:02;;;;;;;18.02;12.27;;;;;;;-145.45;100.00;62759.84;5261851;28;20053;-79
2022/03/01 08:23:33;;;;;;;21.52;13.13;;;;;;;-145.45;100.00;62759.84;5262324;28;20507;-79
2022/03/01 08:26:04;;;;;;;23.25;13.20;;;;;;;-145.45;100.00;62759.84;5270040;28;20112;-79
2022/03/01 08:28:36;;;;;;;18.80;13.00;;;;;;;-145.45;100.00;62759.84;5283194;28;20040;-79
2022/03/01 08:31:07;;;;;;;20.27;12.30;;;;;;;-145.45;100.00;62759.84;5264837;28;20028;-79
2022/03/01 08:33:39;;;;;;;21.38;13.15;;;;;;;-145.45;100.00;62759.84;5283464;28;20028;-79
2022/03/01 08:36:12;;;;;;;21.20;13.77;;;;;;;-145.45;100.00;62759.84;5282859;28;20076;-79
2022/03/01 08:38:44;;;;;;;19.92;13.48;;;;;;;-145.45;100.00;62759.84;5264115;28;20393;-79
2022/03/01 08:41:15;;;;;;;20.95;12.23;;;;;;;-145.45;100.00;62759.84;5282511;28;20024;-79
2022/03/01 08:43:46;;;;;;;18.85;13.48;;;;;;;-145.45;100.00;62759.84;5282634;28;20105;-79
2022/03/01 08:46:18;;;;;;;21.65;13.55;;;;;;;-145.45;100.00;62759.84;5282313;28;20021;-79
2022/03/01 08:48:53;;;;;;;17.20;11.77;;;;;;;-145.45;100.00;62759.84;5282734;28;20034;-79
2022/03/01 08:51:25;;;;;;;18.75;13.07;;;;;;;-145.45;100.00;62759.84;5282324;28;20017;-79
2022/03/01 08:53:57;;;;;;;21.10;13.50;;;;;;;-145.45;100.00;62759.84;5264563;28;20025;-78
2022/03/01 08:56:28;;;;;;;19.33;13.38;;;;;;;-145.45;100.00;62759.84;5281795;28;20362;-79
2022/03/01 08:59:00;;;;;;;19.73;12.80;;;;;;;-145.45;100.00;62759.84;5282012;28;20053;-79
2022/03/01 09:01:32;;;;;;;21.73;13.32;;;;;;;-145.45;100.00;62759.84;5282616;28;20778;-79
2022/03/01 09:04:04;;;;;;;20.83;13.35;;;;;;;-145.45;100.00;62759.84;5281840;28;20474;-79
2022/03/01 09:06:35;;;;;;;18.05;12.85;;;;;;;-145.45;100.00;62759.84;5278392;28;20020;-79
2022/03/01 09:09:06;;;;;;;24.38;12.90;;;;;;;-145.45;100.00;62759.84;5282305;28;20441;-80
2022/03/01 09:11:38;;;;;;;17.42;12.30;;;;;;;-145.45;100.00;62759.84;5278482;28;20032;-79
2022/03/01 09:14:09;;;;;;;16.88;12.88;;;;;;;-145.45;100.00;62759.84;5281559;28;20037;-79
2022/03/01 09:16:40;;;;;;;19.05;12.57;;;;;;;-145.45;100.00;62759.84;5281483;28;20382;-79
2022/03/01 09:19:14;;;;;;;17.23;12.15;;;;;;;-145.45;100.00;62759.84;5282206;28;20449;-79
2022/03/01 09:21:45;;;;;;;20.60;13.00;;;;;;;-145.45;100.00;62759.84;5281497;28;20025;-79
2022/03/01 09:24:16;;;;;;;17.25;13.00;;;;;;;-145.45;100.00;62759.84;5282155;28;20029;-79
2022/03/01 09:26:51;;;;;;;16.88;12.30;;;;;;;-145.45;100.00;62759.84;5281736;28;20025;-79
2022/03/01 09:29:22;;;;;;;20.83;13.38;;;;;;;-145.45;100.00;62759.84;5281854;28;20427;-79
2022/03/01 09:31:53;;;;;;;17.55;12.93;;;;;;;-145.45;100.00;62759.84;5282402;28;20094;-79
2022/03/01 09:34:26;;;;;;;19.95;13.07;;;;;;;-145.45;100.00;62759.84;5282484;28;20025;-79
2022/03/01 09:36:57;;;;;;;15.98;12.20;;;;;;;-145.45;100.00;62759.84;5283357;28;20032;-79
2022/03/01 09:39:29;;;;;;;17.83;12.35;;;;;;;-145.45;100.00;62759.84;5297276;28;20033;-80
2022/03/01 09:42:00;;;;;;;19.00;13.68;;;;;;;-145.45;100.00;62759.84;5277571;28;20036;-78
2022/03/01 09:44:32;;;;;;;20.92;13.95;;;;;;;-145.45;100.00;62759.84;5287508;28;20040;-79
2022/03/01 09:47:03;;;;;;;17.58;11.60;;;;;;;-145.45;100.00;62759.84;5286933;28;20031;-78
2022/03/01 09:49:34;;;;;;;22.33;12.55;;;;;;;-145.45;100.00;62759.84;5282710;28;20049;-80
2022/03/01 09:52:06;;;;;;;16.60;12.48;;;;;;;-145.45;100.00;62759.84;5264573;28;20099;-79
2022/03/01 09:54:37;;;;;;;19.10;12.20;;;;;;;-145.45;100.00;62759.84;5281050;28;20378;-80
2022/03/01 09:57:12;;;;;;;19.63;12.70;;;;;;;-145.45;100.00;62759.84;5260056;28;20020;-80
2022/03/01 09:59:44;;;;;;;17.33;12.38;;;;;;;-145.45;100.00;62759.84;5261214;28;20025;-80
2022/03/01 10:02:17;;;;;;;19.10;12.82;;;;;;;-145.45;100.00;62759.84;5268286;28;20140;-79
2022/03/01 10:04:53;;;;;;;18.42;13.25;;;;;;;-145.45;100.00;62759.84;5281761;28;20432;-80
2022/03/01 10:07:28;;;;;;;17.65;11.77;;;;;;;-145.45;100.00;62759.84;5263353;28;20021;-80
2022/03/01 10:10:08;;;;;;;17.80;12.10;;;;;;;-145.45;100.00;62759.84;5280484;28;20102;-80
2022/03/01 10:12:40;;;;;;;17.98;11.73;;;;;;;-145.45;100.00;62759.84;5275098;28;20029;-80
2022/03/01 10:15:13;;;;;;;15.52;11.73;;;;;;;-145.45;100.00;62759.84;5281871;28;20033;-80
2022/03/01 10:17:46;;;;;;;17.38;12.07;;;;;;;-145.45;100.00;62759.84;5282018;28;20017;-80
2022/03/01 10:20:19;;;;;;;16.35;12.57;;;;;;;-145.45;100.00;62759.84;5282434;28;20033;-80
2022/03/01 10:22:52;;;;;;;20.15;11.98;;;;;;;-145.45;100.00;62759.84;5262960;28;20036;-80
2022/03/01 10:25:25;;;;;;;17.17;12.45;;;;;;;-145.45;100.00;62759.84;5281778;28;20070;-80
2022/03/01 10:27:56;;;;;;;17.38;11.48;;;;;;;-145.45;100.00;62759.84;5285370;28;20022;-80
2022/03/01 10:30:33;;;;;;;17.10;12.23;;;;;;;-145.45;100.00;62759.84;5285688;28;20075;-80
2022/03/01 10:33:15;;;;;;;20.17;12.35;;;;;;;-145.45;100.00;62759.84;5284932;28;20021;-80
2022/03/01 10:35:58;;;;;;;16.10;12.07;;;;;;;-145.45;100.00;62759.84;5285701;28;20021;-80
2022/03/01 10:38:29;;;;;;;16.30;12.05;;;;;;;-145.45;100.00;62759.84;5266987;28;20020;-80
2022/03/01 10:41:02;;;;;;;18.63;12.75;;;;;;;-145.45;100.00;62759.84;5285268;28;20386;-80
2022/03/01 10:43:33;;;;;;;16.63;12.00;;;;;;;-145.45;100.00;62759.84;5285059;28;20025;-80
2022/03/01 10:46:06;;;;;;;17.27;12.90;;;;;;;-145.45;100.00;62759.84;5278253;28;20377;-80
2022/03/01 10:48:38;;;;;;;19.35;12.35;;;;;;;-145.45;100.00;62759.84;5285084;28;20635;-80
2022/03/01 10:51:09;;;;;;;17.65;12.20;;;;;;;-145.45;100.00;62759.84;5285176;28;20028;-80
2022/03/01 10:53:45;;;;;;;15.80;11.95;;;;;;;-145.45;100.00;62759.84;5284966;28;20043;-80
2022/03/01 10:56:16;;;;;;;18.55;12.57;;;;;;;-145.45;100.00;62759.84;5266866;28;20048;-80
2022/03/01 10:58:48;;;;;;;16.60;11.95;;;;;;;-145.45;100.00;62759.84;5285636;28;20025;-80
2022/03/01 11:01:21;;;;;;;17.17;12.68;;;;;;;-145.45;100.00;62759.84;5284993;28;20116;-80
2022/03/01 11:03:53;;;;;;;14.23;11.70;;;;;;;-145.45;100.00;62759.84;5285218;28;20021;-80
2022/03/01 11:06:25;;;;;;;14.95;12.25;;;;;;;-145.45;100.00;62759.84;5285417;28;20021;-81
2022/03/01 11:08:59;;;;;;;17.58;12.60;;;;;;;-145.45;100.00;62759.84;5284949;28;20135;-80
2022/03/01 11:11:31;;;;;;;16.63;12.43;;;;;;;-145.45;100.00;62759.84;5284364;28;20373;-80
2022/03/01 11:14:04;;;;;;;16.27;12.35;;;;;;;-145.45;100.00;62759.84;5284781;28;20039;-80